This is the latest recevied weather packets stored in our database for station/object N9MXT-13. If no packets are shown the sender has not sent any weather packets the latest 10 day(s).
| Time | Temp. | Humidity | Pressure | Rain* | Wind** | Luminosity | Snow |
|---|---|---|---|---|---|---|---|
| 1777504801 | 8.89° C | 76% | 1015.5 hPa | 0 mm | - | - | - |
| 1777504200 | 8.89° C | 74% | 1015.5 hPa | 0 mm | - | - | - |
| 1777488900 | 10.56° C | 77% | 1014.2 hPa | 0 mm | - | - | - |
| 1777488600 | 10° C | 77% | 1014.3 hPa | 0 mm | - | - | - |
| 1777486500 | 9.44° C | 81% | 1014.3 hPa | 0 mm | - | - | - |
| 1777483801 | 10° C | 76% | 1014.1 hPa | 0 mm | - | - | - |
| 1777481099 | 10° C | 75% | 1014.1 hPa | 0 mm | - | - | - |
| 1777477500 | 11.11° C | 76% | 1013.8 hPa | 0 mm | - | - | - |
| 1777475999 | 11.11° C | 76% | 1013.6 hPa | 0 mm | - | - | - |
| 1777475700 | 11.11° C | 75% | 1013.7 hPa | 0 mm | - | - | - |
| 1777475399 | 11.11° C | 74% | 1013.6 hPa | 0 mm | - | - | - |
| 1777470599 | 10.56° C | 78% | 1013.6 hPa | 0 mm | - | - | - |
| 1777469099 | 10.56° C | 79% | 1013.6 hPa | 0 mm | - | - | - |
| 1777467899 | 10.56° C | 81% | 1013.5 hPa | 0 mm | - | - | - |
| 1777460701 | 9.44° C | 84% | 1013 hPa | 0 mm | - | - | - |
| 1777460099 | 9.44° C | 84% | 1013 hPa | 0 mm | - | - | - |
| 1777456199 | 10° C | 78% | 1013 hPa | 0 mm | - | - | - |
| 1777448998 | 12.22° C | 68% | 1013.1 hPa | 0 mm | - | - | - |
| 1777448399 | 12.22° C | 68% | 1012.8 hPa | 0 mm | - | - | - |
| 1777443599 | 12.22° C | 69% | 1012.8 hPa | 0 mm | - | - | - |
| 1777442403 | 12.22° C | 69% | 1013 hPa | 0 mm | - | - | - |
| 1777441500 | 12.22° C | 69% | 1013 hPa | 0 mm | - | - | - |
| 1777440600 | 12.78° C | 68% | 1012.8 hPa | 0 mm | - | - | - |
| 1777439700 | 12.78° C | 68% | 1012.5 hPa | 0 mm | - | - | - |
| 1777435501 | 13.33° C | 69% | 1013.5 hPa | 0 mm | - | - | - |
* Rain latest hour (hover to see other rain measurements)
** Current wind speed in m/s (hover to see current wind gust speed)